• Join FlightAware (Why Join?)
  • Login
  • US Flag 
05:43AM EDT


 

Airport Tracker/Info


-or-


 

Live Flight TrackerFlight Track Log ✈ DAL2369 ✈ 06-Jun-2013 ✈ KMCO - KATL

Flight Track Log - Related Links

Times and Time Zones

All times are in EDT time to prevent confusion due to time zone crossing. See the DAL2369 flight status page for this flight to view local times or setup timezone preferences in your user account.

Time Position Orientation Groundspeed Altitude Reporting Facility
EDT Latitude Longitude Course Direction KTS MPH feet Rate Location/Type
03:50PM 28.4333 -81.3167 350° North 142 163 700  Level Orlando TRACON
03:51PM 28.4000 -81.3333 204° Southwest 128 147 2,300 2,220 Climbing Orlando TRACON
03:52PM 28.3500 -81.3833 221° Southwest 231 266 4,500 1,800 Climbing Orlando TRACON
03:53PM 28.7428 -81.3500 North  Level FlightAware Approximate
03:54PM 28.8529 -81.3539 350° North  Level FlightAware Approximate
03:55PM 28.9624 -81.3667 North  Level FlightAware Approximate
03:56PM 29.0718 -81.3810 350° North  Level FlightAware Approximate
03:58PM 28.6650 -81.5470 221° Southwest 424 488 15,300  Level FlightAware
03:59PM 28.8240 -81.5520 358° North 425 489 17,200 900 Climbing FlightAware
04:00PM 28.8840 -81.5530 359° North 425 489 17,200  Level FlightAware
04:01PM 28.9640 -81.5540 359° North 425 489 17,200  Level FlightAware
04:01PM 29.0260 -81.5560 358° North 425 489 17,200 4,800 Level FlightAware
04:02PM 29.3250 -81.6820 340° North 479 551 24,100 6,000 Climbing FlightAware
04:03PM 29.4090 -81.7010 349° North 489 563 25,600 1,920 Climbing FlightAware
04:04PM 29.5120 -81.7250 349° North 494 568 26,700 1,380 Climbing FlightAware
04:04PM 29.5970 -81.7450 348° North 501 577 27,500 540 Climbing FlightAware
04:05PM 29.6930 -81.7690 348° North 501 577 27,500 900 Level FlightAware
04:07PM 29.9370 -81.8250 349° North 523 602 29,800 960 Climbing FlightAware
04:07PM 30.0180 -81.8450 348° North 524 603 29,800 960 Level FlightAware
04:08PM 30.1240 -81.8770 345° North 31,100 1,320 Climbing FlightAware
04:09PM 30.2528 -81.9594 345° North 508 585 32,300 1,020 Climbing Jacksonville Center
04:10PM 30.3806 -82.0281 335° Northwest 503 579 33,300 1,020 Climbing Jacksonville Center
04:11PM 30.5186 -82.0775 343° North 503 579 34,400 840 Climbing Jacksonville Center
04:12PM 30.6672 -82.1367 341° North 509 586 35,000 300 Climbing Jacksonville Center
04:13PM 30.8053 -82.1839 344° North 509 586 35,000  Level Jacksonville Center
04:14PM 30.9372 -82.2339 342° North 503 579 35,000  Level Jacksonville Center
04:15PM 31.0731 -82.2839 343° North 503 579 35,000  Level Jacksonville Center
04:16PM 31.2111 -82.3339 343° North 503 579 35,000  Level Jacksonville Center
04:18PM 31.4647 -82.4222 343° North 515 593 35,000  Level Atlanta Center
04:19PM 31.6008 -82.4711 343° North 515 593 35,000  Level Atlanta Center
04:20PM 31.7353 -82.5225 342° North 515 593 35,000  Level Atlanta Center
04:21PM 31.8714 -82.5739 342° North 515 593 35,000  Level Atlanta Center
04:22PM 32.0078 -82.6231 343° North 515 593 35,000  Level Atlanta Center
04:23PM 32.1419 -82.6825 339° North 515 593 35,000 -1,200 Level Atlanta Center
04:24PM 32.2517 -82.7936 319° Northwest 498 573 32,600 -2,160 Descending Atlanta Center
04:25PM 32.3592 -82.9053 319° Northwest 512 589 30,700 -1,620 Descending Atlanta Center
04:26PM 32.4686 -83.0197 319° Northwest 512 589 29,400 -1,680 Descending Atlanta Center
04:27PM 32.5739 -83.1342 318° Northwest 518 596 27,400 -2,100 Descending Atlanta Center
04:28PM 32.6769 -83.2417 319° Northwest 507 583 25,300 -2,100 Descending Atlanta Center
04:29PM 32.7800 -83.3469 319° Northwest 495 570 23,200 -1,920 Descending Atlanta Center
04:35PM 33.2970 -83.9290 319° Northwest 394 453 12,300 -1,740 Descending FlightAware
04:35PM 33.3500 -83.9910 316° Northwest 388 447 12,100 -180 Descending FlightAware
04:36PM 33.4050 -84.0480 319° Northwest 389 448 12,100  Level FlightAware
04:37PM 33.4390 -84.0990 309° West 392 451 12,100  Level FlightAware
04:37PM 33.4680 -84.1780 294° West 388 447 12,100  Level FlightAware
04:38PM 33.5080 -84.2540 302° West 348 400 12,100 -180 Level FlightAware
04:39PM 33.5440 -84.3190 304° West 306 352 11,900 -960 Descending FlightAware
04:39PM 33.5450 -84.3860 271° West 278 320 10,800 -1,920 Descending FlightAware
04:40PM 33.5450 -84.4290 270° West 273 314 9,700 -2,280 Descending FlightAware
04:40PM 33.5450 -84.4580 270° West 269 310 9,000 -2,340 Descending FlightAware
04:41PM 33.5450 -84.5050 270° West 266 306 7,700 -1,980 Descending FlightAware
04:41PM 33.5450 -84.5450 270° West 264 304 7,100 -1,800 Descending FlightAware
04:42PM 33.5450 -84.5860 270° West 260 299 6,100 -2,100 Descending FlightAware
04:42PM 33.5460 -84.6300 272° West 253 291 5,000 -2,280 Descending FlightAware
04:42PM 33.5500 -84.6450 288° West 251 289 4,500 -2,580 Descending FlightAware
04:43PM 33.5630 -84.6620 313° West 250 288 3,800 -2,760 Descending FlightAware
04:43PM 33.5720 -84.6650 344° North 250 288 3,400 -1,080 Descending FlightAware
04:43PM 33.6020 -84.6510 21° North 228 262 3,100 -300 Descending FlightAware
04:44PM 33.6160 -84.6190 62° Northeast 199 229 3,100  Level FlightAware
04:44PM 33.6200 -84.6040 72° East 198 228 3,100  Level FlightAware
04:45PM 33.6200 -84.5760 90° East 192 221 3,100 -540 Level FlightAware
04:45PM 33.6200 -84.5420 90° East 188 216 2,600 -960 Descending FlightAware
04:46PM 33.6200 -84.5170 90° East 165 190 2,200 -840 Descending FlightAware
04:46PM 33.6200 -84.4960 90° East 149 171 1,900 -720 Descending FlightAware
04:46PM 33.6200 -84.4820 90° East 140 161 1,700 -840 Descending FlightAware
04:47PM 33.6200 -84.4620 90° East 136 157 1,300 -720 Descending FlightAware
04:47PM 33.6200 -84.4440 90° East 140 161 1,100 -540 Descending FlightAware
04:47PM 33.6200 -84.4310 90° East 105 121 -3,300 Descending FlightAware
04:48PM 33.6210 -84.4240 80° East 32 37  Level FlightAware
04:48PM 33.6220 -84.4240 360° North 29 33  Level FlightAware
04:48PM 33.6220 -84.4250 270° West 33 38  Level FlightAware
04:49PM 33.6220 -84.4260 270° West 17 20  Level FlightAware
04:49PM 33.6220 -84.4300 270° West 21 24  Level FlightAware
04:50PM 33.6220 -84.4320 270° West 17 20  Level FlightAware